Time,TemperatureF,DewpointF,PressureIn,WindDirection,WindDirectionDegrees,WindSpeedMPH,WindSpeedGustMPH,Humidity,HourlyPrecipIn,Conditions,Clouds,dailyrainin,SolarRadiationWatts/m^2,SoftwareType,DateUTC
2013-05-17 00:00:00,54.0,50.0,29.85,ESE,105,8.0,-999.0,87,-99.99,,,-99.99,0.120000,,2013-05-17 06:00:00,
2013-05-17 00:52:00,54.0,50.0,29.85,ESE,105,8.0,-999.0,87,-99.99,,,-99.99,0.120000,,2013-05-17 06:52:00,
2013-05-17 02:00:00,53.0,50.0,29.83,ESE,105,6.0,-999.0,89,-99.99,,,-99.99,0.090000,,2013-05-17 08:00:00,
2013-05-17 02:52:00,53.0,50.0,29.83,ESE,105,6.0,-999.0,89,-99.99,,,-99.99,0.090000,,2013-05-17 08:52:00,
2013-05-17 03:00:00,53.0,50.0,29.83,East,90,6.0,-999.0,90,-99.99,,,-99.99,0.080000,,2013-05-17 09:00:00,
2013-05-17 03:53:00,53.0,50.0,29.83,East,90,6.0,-999.0,90,-99.99,,,-99.99,0.080000,,2013-05-17 09:53:00,
2013-05-17 04:00:00,52.0,50.0,29.83,East,89,5.0,-999.0,91,-99.99,,,-99.99,0.070000,,2013-05-17 10:00:00,
2013-05-17 04:54:00,52.0,50.0,29.83,East,89,5.0,-999.0,91,-99.99,,,-99.99,0.070000,,2013-05-17 10:54:00,
2013-05-17 05:00:00,52.0,50.0,29.84,ENE,72,5.0,-999.0,91,-99.99,,,-99.99,0.090000,,2013-05-17 11:00:00,
2013-05-17 05:53:00,52.0,50.0,29.84,ENE,72,5.0,-999.0,91,-99.99,,,-99.99,0.090000,,2013-05-17 11:53:00,
2013-05-17 06:00:00,51.0,50.0,29.85,ENE,60,5.0,-999.0,94,-99.99,,,-99.99,1.680000,,2013-05-17 12:00:00,
2013-05-17 06:53:00,51.0,50.0,29.85,ENE,60,5.0,-999.0,94,-99.99,,,-99.99,1.680000,,2013-05-17 12:53:00,
2013-05-17 07:00:00,51.0,51.0,29.85,NE,52,5.0,-999.0,97,-99.99,,,-99.99,17.559999,,2013-05-17 13:00:00,
2013-05-17 07:52:00,51.0,51.0,29.85,NE,52,5.0,-999.0,97,-99.99,,,-99.99,17.559999,,2013-05-17 13:52:00,
2013-05-17 08:00:00,52.0,51.0,29.86,ENE,57,6.0,-999.0,93,-99.99,,,-99.99,59.119999,,2013-05-17 14:00:00,
2013-05-17 08:53:00,52.0,51.0,29.86,ENE,57,6.0,-999.0,93,-99.99,,,-99.99,59.119999,,2013-05-17 14:53:00,
2013-05-17 09:00:00,55.0,50.0,29.85,ENE,58,7.0,-999.0,85,-99.99,,,-99.99,117.000000,,2013-05-17 15:00:00,
2013-05-17 09:57:00,55.0,50.0,29.85,ENE,58,7.0,-999.0,85,-99.99,,,-99.99,117.000000,,2013-05-17 15:57:00,
2013-05-17 10:00:00,56.0,49.0,29.86,NE,55,7.0,-999.0,78,-99.99,,,-99.99,191.199997,,2013-05-17 16:00:00,
2013-05-17 10:56:00,56.0,49.0,29.86,NE,55,7.0,-999.0,78,-99.99,,,-99.99,191.199997,,2013-05-17 16:56:00,
2013-05-17 11:00:00,58.0,-99.9,29.86,ENE,70,4.0,-999.0,72,-99.99,,,-99.99,293.899994,,2013-05-17 17:00:00,
2013-05-17 12:00:00,61.0,-99.9,29.85,SE,127,3.0,-999.0,66,-99.99,,,-99.99,553.299988,,2013-05-17 18:00:00,
2013-05-17 13:00:00,-999.0,-99.9,29.83,ENE,66,3.0,-999.0,56,-99.99,,,-99.99,701.400024,,2013-05-17 19:00:00,
2013-05-17 14:00:00,66.0,49.0,29.82,NE,37,3.0,-999.0,53,-99.99,,,-99.99,549.000000,,2013-05-17 20:00:00,
2013-05-17 14:58:00,66.0,49.0,29.82,NE,37,3.0,-999.0,53,-99.99,,,-99.99,549.000000,,2013-05-17 20:58:00,
2013-05-17 15:00:00,68.0,46.0,29.81,NE,45,4.0,-999.0,45,-99.99,,,-99.99,448.899994,,2013-05-17 21:00:00,
2013-05-17 15:58:00,68.0,46.0,29.81,NE,45,4.0,-999.0,45,-99.99,,,-99.99,448.899994,,2013-05-17 21:58:00,
2013-05-17 16:00:00,67.0,46.0,29.80,East,81,3.0,-999.0,47,-99.99,,,-99.99,270.100006,,2013-05-17 22:00:00,
2013-05-17 16:55:00,67.0,46.0,29.80,East,81,3.0,-999.0,47,-99.99,,,-99.99,270.100006,,2013-05-17 22:55:00,
2013-05-17 17:00:00,68.0,47.0,29.78,ENE,62,5.0,-999.0,46,-99.99,,,-99.99,412.899994,,2013-05-17 23:00:00,
2013-05-17 17:54:00,68.0,47.0,29.78,ENE,62,5.0,-999.0,46,-99.99,,,-99.99,412.899994,,2013-05-17 23:54:00,
2013-05-17 18:00:00,68.0,48.0,29.78,NE,41,6.0,-999.0,49,-99.99,,,-99.99,252.500000,,2013-05-18 00:00:00,
2013-05-17 18:54:00,68.0,48.0,29.78,NE,41,6.0,-999.0,49,-99.99,,,-99.99,252.500000,,2013-05-18 00:54:00,
2013-05-17 19:00:00,66.0,48.0,29.79,ENE,72,7.0,-999.0,52,-99.99,,,-99.99,95.000000,,2013-05-18 01:00:00,
2013-05-17 19:52:00,66.0,48.0,29.79,ENE,72,7.0,-999.0,52,-99.99,,,-99.99,95.000000,,2013-05-18 01:52:00,
2013-05-17 20:00:00,63.0,50.0,29.80,East,79,6.0,-999.0,62,-99.99,,,-99.99,26.530001,,2013-05-18 02:00:00,
2013-05-17 20:54:00,63.0,50.0,29.80,East,79,6.0,-999.0,62,-99.99,,,-99.99,26.530001,,2013-05-18 02:54:00,
2013-05-17 21:00:00,61.0,51.0,29.83,ESE,122,3.0,-999.0,70,-99.99,,,-99.99,2.600000,,2013-05-18 03:00:00,
2013-05-17 21:53:00,61.0,51.0,29.83,ESE,122,3.0,-999.0,70,-99.99,,,-99.99,2.600000,,2013-05-18 03:53:00,
2013-05-17 22:00:00,59.0,52.0,29.81,ESE,108,4.0,-999.0,80,-99.99,,,-99.99,0.130000,,2013-05-18 04:00:00,
2013-05-17 22:52:00,59.0,52.0,29.81,ESE,108,4.0,-999.0,80,-99.99,,,-99.99,0.130000,,2013-05-18 04:52:00,
2013-05-17 23:00:00,57.0,52.0,29.81,East,80,5.0,-999.0,83,-99.99,,,-99.99,0.100000,,2013-05-18 05:00:00,
2013-05-17 23:52:00,57.0,52.0,29.81,East,80,5.0,-999.0,83,-99.99,,,-99.99,0.100000,,2013-05-18 05:52:00,